Currently 54°F in Moreno Valley, California, USA
54°F
69°F / 42°F
calm
0.00"
Wednesday, January 23, 2019 6:13 PM PST

Moreno Valley, California Weather Summary
Last 36 Hours

Temperature Winds Hourly Humidity Dewpoint
Time Report Norm Report Norm Max Gusts Precip. Rpt. Norm Rpt. Norm Pressure
1Wed 06:13 PM  53.8°F  57°F  calm  2 mph  none  0.00"  51%  56%  35°F  40°F  28.28"
Wed 06:00 PM  55.1°F  57°F  calm  2 mph  1 mph  0.00"  50%  55%  36°F  40°F  28.28"
Wed 05:00 PM  61.5°F  61°F  calm  3 mph  9 mph  0.00"  35%  49%  33°F  41°F  28.29"
Wed 04:00 PM  66.8°F  64°F  4 mph S  4 mph  11 mph  0.00"  29%  44%  33°F  41°F  28.30"
Wed 03:00 PM  68.2°F  65°F  4 mph NW  5 mph  9 mph  0.00"  27%  43%  32°F  41°F  28.31"
2Wed 02:27 PM  69.4°F  66°F  2 mph W  5 mph  5 mph  ----  24%  42%  30°F  41°F  28.31"
Wed 02:00 PM  68.4°F  66°F  4 mph SW  5 mph  9 mph  0.00"  25%  42%  30°F  41°F  28.32"
Wed 01:00 PM  67.8°F  65°F  calm  5 mph  5 mph  0.00"  24%  43%  28°F  41°F  28.35"
Wed 12:00 PM  64.4°F  64°F  2 mph SW  4 mph  5 mph  0.00"  24%  45%  26°F  41°F  28.39"
Wed 11:00 AM  62.2°F  62°F  1 mph SW  4 mph  5 mph  0.00"  31%  48%  30°F  42°F  28.43"
Wed 10:00 AM  59.5°F  60°F  calm  3 mph  6 mph  0.00"  28%  52%  25°F  42°F  28.45"
Wed 09:00 AM  55.9°F  57°F  calm  2 mph  7 mph  0.00"  38%  57%  30°F  41°F  28.45"
Wed 08:00 AM  50.0°F  53°F  calm  2 mph  none  0.00"  48%  63%  31°F  40°F  28.44"
Wed 07:00 AM  42.6°F  50°F  calm  2 mph  none  0.00"  54%  65%  26°F  38°F  28.44"
Wed 06:00 AM  42.2°F  50°F  calm  2 mph  none  0.00"  50%  65%  24°F  38°F  28.44"
3Wed 05:00 AM  41.6°F  50°F  calm  2 mph  5 mph  0.00"  51%  65%  24°F  38°F  28.43"
Wed 04:00 AM  43.5°F  51°F  calm  2 mph  none  0.00"  47%  65%  24°F  39°F  28.42"
Wed 03:00 AM  45.5°F  51°F  calm  2 mph  7 mph  0.00"  41%  64%  22°F  39°F  28.43"
Wed 02:00 AM  45.1°F  51°F  2 mph N  2 mph  5 mph  0.00"  40%  65%  21°F  39°F  28.44"
Wed 01:00 AM  46.3°F  51°F  calm  2 mph  5 mph  0.00"  39%  65%  22°F  40°F  28.45"
Wed 12:00 AM  45.6°F  52°F  calm  2 mph  10 mph  0.00"  44%  65%  24°F  40°F  28.45"
Tue 11:00 PM  47.0°F  52°F  5 mph E  1 mph  11 mph  0.00"  38%  64%  21°F  40°F  28.44"
Tue 10:00 PM  47.5°F  53°F  calm  2 mph  10 mph  0.00"  38%  64%  22°F  40°F  28.43"
Tue 09:00 PM  49.2°F  54°F  calm  2 mph  9 mph  0.00"  36%  62%  22°F  40°F  28.43"
Tue 08:00 PM  50.2°F  55°F  calm  3 mph  8 mph  0.00"  34%  60%  21°F  41°F  28.41"
Tue 07:00 PM  49.8°F  56°F  calm  3 mph  6 mph  0.00"  34%  58%  22°F  41°F  28.40"
Tue 06:00 PM  51.0°F  57°F  4 mph SW  2 mph  8 mph  0.00"  34%  56%  22°F  41°F  28.38"
Tue 05:00 PM  55.4°F  61°F  6 mph NE  3 mph  13 mph  0.00"  27%  50%  21°F  42°F  28.38"
Tue 04:00 PM  57.7°F  64°F  3 mph NE  4 mph  26 mph  0.00"  25%  45%  21°F  42°F  28.35"
Tue 03:00 PM  59.5°F  66°F  9 mph S  5 mph  25 mph  0.00"  24%  43%  21°F  42°F  28.33"
Tue 02:00 PM  60.6°F  66°F  8 mph W  5 mph  21 mph  0.00"  21%  43%  19°F  42°F  28.34"
Tue 01:00 PM  62.2°F  65°F  8 mph S  5 mph  24 mph  0.00"  22%  44%  21°F  42°F  28.34"
Tue 12:00 PM  60.8°F  64°F  8 mph NE  4 mph  23 mph  0.00"  24%  45%  22°F  42°F  28.34"
Tue 11:00 AM  58.4°F  63°F  12 mph E  4 mph  26 mph  0.00"  25%  48%  21°F  42°F  28.35"
Tue 10:00 AM  57.1°F  60°F  6 mph SW  3 mph  18 mph  0.00"  30%  53%  24°F  42°F  28.36"
Tue 09:00 AM  54.7°F  57°F  6 mph SW  3 mph  13 mph  0.00"  34%  57%  26°F  42°F  28.35"
Tue 08:00 AM  50.8°F  53°F  1 mph W  2 mph  12 mph  0.00"  38%  63%  25°F  41°F  28.33"
Tue 07:00 AM  48.0°F  50°F  calm  2 mph  23 mph  0.00"  42%  65%  25°F  38°F  28.32"

  1. Current weather data. No green row appears if the current weather data is also the high or low for the current day.
  2. High temperature for the current day.
  3. Low temperature for the current day.

The Moreno Valley, California weather pages are a service of WeatherCurrents. Moreno Valley is located in Southern California's Inland Empire, east of Riverside and north of Perris, along the State Route 60 freeway.
Copyright ©Wed Jan 23 18:13:56 PST 2019  WeatherCurrents. All rights reserved. - Submit questions and comments - Privacy Policy

This page automatically refreshes every 10 minutes.